sensor_id;sensor_type;location;lat;lon;timestamp;P1;durP1;ratioP1;P2;durP2;ratioP2
11588;SDS011;5850;51.360;12.362;2023-11-21T00:00:04;3.87;;;3.40;;
11588;SDS011;5850;51.360;12.362;2023-11-21T00:02:38;2.87;;;2.60;;
11588;SDS011;5850;51.360;12.362;2023-11-21T00:05:08;2.87;;;2.37;;
11588;SDS011;5850;51.360;12.362;2023-11-21T00:07:37;4.53;;;2.93;;
11588;SDS011;5850;51.360;12.362;2023-11-21T00:10:05;4.00;;;2.60;;
11588;SDS011;5850;51.360;12.362;2023-11-21T00:12:34;3.07;;;2.60;;
11588;SDS011;5850;51.360;12.362;2023-11-21T00:15:03;2.93;;;2.63;;
11588;SDS011;5850;51.360;12.362;2023-11-21T00:17:32;3.63;;;2.40;;
11588;SDS011;5850;51.360;12.362;2023-11-21T00:20:01;4.10;;;3.00;;
11588;SDS011;5850;51.360;12.362;2023-11-21T00:22:33;5.07;;;3.13;;
11588;SDS011;5850;51.360;12.362;2023-11-21T00:25:02;3.43;;;2.83;;
11588;SDS011;5850;51.360;12.362;2023-11-21T00:27:30;3.40;;;3.00;;
11588;SDS011;5850;51.360;12.362;2023-11-21T00:29:58;3.77;;;2.80;;
11588;SDS011;5850;51.360;12.362;2023-11-21T00:32:27;3.73;;;2.57;;
11588;SDS011;5850;51.360;12.362;2023-11-21T00:34:55;4.40;;;3.27;;
11588;SDS011;5850;51.360;12.362;2023-11-21T00:37:24;4.13;;;2.80;;
11588;SDS011;5850;51.360;12.362;2023-11-21T00:39:52;3.40;;;2.77;;
11588;SDS011;5850;51.360;12.362;2023-11-21T00:42:20;6.03;;;3.13;;
11588;SDS011;5850;51.360;12.362;2023-11-21T00:44:51;4.33;;;3.20;;
11588;SDS011;5850;51.360;12.362;2023-11-21T00:47:19;4.70;;;3.30;;
11588;SDS011;5850;51.360;12.362;2023-11-21T00:49:51;4.97;;;3.37;;
11588;SDS011;5850;51.360;12.362;2023-11-21T00:52:19;4.40;;;3.40;;
11588;SDS011;5850;51.360;12.362;2023-11-21T00:54:47;4.63;;;3.57;;
11588;SDS011;5850;51.360;12.362;2023-11-21T00:57:15;5.97;;;3.67;;
11588;SDS011;5850;51.360;12.362;2023-11-21T00:59:43;4.07;;;3.10;;
11588;SDS011;5850;51.360;12.362;2023-11-21T01:02:12;4.23;;;3.20;;
11588;SDS011;5850;51.360;12.362;2023-11-21T01:04:40;6.17;;;3.60;;
11588;SDS011;5850;51.360;12.362;2023-11-21T01:07:10;5.17;;;3.80;;
11588;SDS011;5850;51.360;12.362;2023-11-21T01:09:38;4.33;;;3.13;;
11588;SDS011;5850;51.360;12.362;2023-11-21T01:12:06;4.07;;;3.17;;
11588;SDS011;5850;51.360;12.362;2023-11-21T01:14:34;4.23;;;3.50;;
11588;SDS011;5850;51.360;12.362;2023-11-21T01:17:03;4.40;;;2.80;;
11588;SDS011;5850;51.360;12.362;2023-11-21T01:19:32;4.77;;;3.27;;
11588;SDS011;5850;51.360;12.362;2023-11-21T01:21:59;3.67;;;3.03;;
11588;SDS011;5850;51.360;12.362;2023-11-21T01:24:30;3.17;;;2.67;;
11588;SDS011;5850;51.360;12.362;2023-11-21T01:26:58;3.23;;;2.93;;
11588;SDS011;5850;51.360;12.362;2023-11-21T01:29:27;3.63;;;3.33;;
11588;SDS011;5850;51.360;12.362;2023-11-21T01:31:55;4.83;;;3.83;;
11588;SDS011;5850;51.360;12.362;2023-11-21T01:34:24;3.50;;;3.20;;
11588;SDS011;5850;51.360;12.362;2023-11-21T01:36:52;5.37;;;3.70;;
11588;SDS011;5850;51.360;12.362;2023-11-21T01:39:20;5.13;;;3.53;;
11588;SDS011;5850;51.360;12.362;2023-11-21T01:41:50;4.20;;;3.47;;
11588;SDS011;5850;51.360;12.362;2023-11-21T01:44:19;5.43;;;3.53;;
11588;SDS011;5850;51.360;12.362;2023-11-21T01:46:47;6.40;;;3.63;;
11588;SDS011;5850;51.360;12.362;2023-11-21T01:49:15;4.93;;;3.77;;
11588;SDS011;5850;51.360;12.362;2023-11-21T01:51:44;4.20;;;3.60;;
11588;SDS011;5850;51.360;12.362;2023-11-21T01:54:18;6.70;;;3.53;;
11588;SDS011;5850;51.360;12.362;2023-11-21T01:56:47;4.40;;;4.00;;
11588;SDS011;5850;51.360;12.362;2023-11-21T01:59:18;4.47;;;3.10;;
11588;SDS011;5850;51.360;12.362;2023-11-21T02:01:48;4.63;;;3.13;;
11588;SDS011;5850;51.360;12.362;2023-11-21T02:04:17;4.30;;;3.17;;
11588;SDS011;5850;51.360;12.362;2023-11-21T02:06:45;5.97;;;2.87;;
11588;SDS011;5850;51.360;12.362;2023-11-21T02:09:13;5.33;;;3.20;;
11588;SDS011;5850;51.360;12.362;2023-11-21T02:11:44;3.80;;;3.17;;
11588;SDS011;5850;51.360;12.362;2023-11-21T02:14:11;4.27;;;3.10;;
11588;SDS011;5850;51.360;12.362;2023-11-21T02:16:40;4.63;;;3.03;;
11588;SDS011;5850;51.360;12.362;2023-11-21T02:19:12;5.20;;;3.40;;
11588;SDS011;5850;51.360;12.362;2023-11-21T02:21:45;4.70;;;3.27;;
11588;SDS011;5850;51.360;12.362;2023-11-21T02:24:14;4.17;;;3.40;;
11588;SDS011;5850;51.360;12.362;2023-11-21T02:26:43;4.87;;;3.43;;
11588;SDS011;5850;51.360;12.362;2023-11-21T02:29:12;4.07;;;3.30;;
11588;SDS011;5850;51.360;12.362;2023-11-21T02:31:43;4.70;;;3.53;;
11588;SDS011;5850;51.360;12.362;2023-11-21T02:34:14;4.80;;;3.53;;
11588;SDS011;5850;51.360;12.362;2023-11-21T02:36:46;3.80;;;3.37;;
11588;SDS011;5850;51.360;12.362;2023-11-21T02:39:15;4.27;;;3.53;;
11588;SDS011;5850;51.360;12.362;2023-11-21T02:41:44;5.10;;;3.97;;
11588;SDS011;5850;51.360;12.362;2023-11-21T02:44:11;4.60;;;3.53;;
11588;SDS011;5850;51.360;12.362;2023-11-21T02:46:40;6.07;;;3.63;;
11588;SDS011;5850;51.360;12.362;2023-11-21T02:49:08;5.17;;;3.60;;
11588;SDS011;5850;51.360;12.362;2023-11-21T02:51:36;6.87;;;4.33;;
11588;SDS011;5850;51.360;12.362;2023-11-21T02:54:05;4.23;;;3.43;;
11588;SDS011;5850;51.360;12.362;2023-11-21T02:56:34;4.03;;;3.43;;
11588;SDS011;5850;51.360;12.362;2023-11-21T02:59:02;8.33;;;4.33;;
11588;SDS011;5850;51.360;12.362;2023-11-21T03:01:31;5.97;;;3.83;;
11588;SDS011;5850;51.360;12.362;2023-11-21T03:03:59;9.17;;;3.97;;
11588;SDS011;5850;51.360;12.362;2023-11-21T03:06:28;6.10;;;4.50;;
11588;SDS011;5850;51.360;12.362;2023-11-21T03:08:56;3.87;;;3.40;;
11588;SDS011;5850;51.360;12.362;2023-11-21T03:11:24;4.80;;;3.60;;
11588;SDS011;5850;51.360;12.362;2023-11-21T03:13:52;5.07;;;3.60;;
11588;SDS011;5850;51.360;12.362;2023-11-21T03:16:20;5.63;;;3.50;;
11588;SDS011;5850;51.360;12.362;2023-11-21T03:18:49;5.10;;;4.07;;
11588;SDS011;5850;51.360;12.362;2023-11-21T03:21:21;4.53;;;3.00;;
11588;SDS011;5850;51.360;12.362;2023-11-21T03:23:48;6.90;;;3.33;;
11588;SDS011;5850;51.360;12.362;2023-11-21T03:26:16;5.93;;;3.67;;
11588;SDS011;5850;51.360;12.362;2023-11-21T03:28:44;7.27;;;3.93;;
11588;SDS011;5850;51.360;12.362;2023-11-21T03:31:13;4.47;;;3.57;;
11588;SDS011;5850;51.360;12.362;2023-11-21T03:33:42;5.37;;;4.03;;
11588;SDS011;5850;51.360;12.362;2023-11-21T03:36:11;6.33;;;4.50;;
11588;SDS011;5850;51.360;12.362;2023-11-21T03:38:42;6.43;;;3.83;;
11588;SDS011;5850;51.360;12.362;2023-11-21T03:41:16;5.43;;;3.80;;
11588;SDS011;5850;51.360;12.362;2023-11-21T03:43:49;5.30;;;4.37;;
11588;SDS011;5850;51.360;12.362;2023-11-21T03:46:25;7.27;;;4.40;;
11588;SDS011;5850;51.360;12.362;2023-11-21T03:49:02;5.40;;;4.60;;
11588;SDS011;5850;51.360;12.362;2023-11-21T03:51:37;6.40;;;4.23;;
11588;SDS011;5850;51.360;12.362;2023-11-21T03:54:10;6.40;;;4.20;;
11588;SDS011;5850;51.360;12.362;2023-11-21T03:56:43;6.83;;;4.60;;
11588;SDS011;5850;51.360;12.362;2023-11-21T03:59:15;6.10;;;4.77;;
11588;SDS011;5850;51.360;12.362;2023-11-21T04:01:43;7.33;;;4.20;;
11588;SDS011;5850;51.360;12.362;2023-11-21T04:04:17;4.30;;;3.87;;
11588;SDS011;5850;51.360;12.362;2023-11-21T04:06:53;5.80;;;3.87;;
11588;SDS011;5850;51.360;12.362;2023-11-21T04:09:30;7.63;;;4.20;;
11588;SDS011;5850;51.360;12.362;2023-11-21T04:12:08;6.47;;;3.93;;
11588;SDS011;5850;51.360;12.362;2023-11-21T04:14:42;5.53;;;3.53;;
11588;SDS011;5850;51.360;12.362;2023-11-21T04:17:20;6.93;;;3.80;;
11588;SDS011;5850;51.360;12.362;2023-11-21T04:19:53;7.27;;;3.40;;
11588;SDS011;5850;51.360;12.362;2023-11-21T04:22:23;5.03;;;3.63;;
11588;SDS011;5850;51.360;12.362;2023-11-21T04:24:56;4.17;;;3.47;;
11588;SDS011;5850;51.360;12.362;2023-11-21T04:27:25;5.40;;;3.83;;
11588;SDS011;5850;51.360;12.362;2023-11-21T04:29:56;4.97;;;3.30;;
11588;SDS011;5850;51.360;12.362;2023-11-21T04:32:25;4.17;;;3.43;;
11588;SDS011;5850;51.360;12.362;2023-11-21T04:34:54;6.57;;;3.87;;
11588;SDS011;5850;51.360;12.362;2023-11-21T04:40:16;6.37;;;3.53;;
11588;SDS011;5850;51.360;12.362;2023-11-21T04:42:50;4.73;;;3.87;;
11588;SDS011;5850;51.360;12.362;2023-11-21T04:45:23;5.10;;;3.30;;
11588;SDS011;5850;51.360;12.362;2023-11-21T04:47:58;7.03;;;3.47;;
11588;SDS011;5850;51.360;12.362;2023-11-21T04:50:38;4.47;;;3.70;;
11588;SDS011;5850;51.360;12.362;2023-11-21T04:53:18;5.77;;;3.63;;
11588;SDS011;5850;51.360;12.362;2023-11-21T04:55:49;5.13;;;3.93;;
11588;SDS011;5850;51.360;12.362;2023-11-21T04:58:23;6.80;;;4.03;;
11588;SDS011;5850;51.360;12.362;2023-11-21T05:00:54;4.10;;;3.60;;
11588;SDS011;5850;51.360;12.362;2023-11-21T05:03:33;4.60;;;3.67;;
11588;SDS011;5850;51.360;12.362;2023-11-21T05:06:09;7.63;;;4.03;;
11588;SDS011;5850;51.360;12.362;2023-11-21T05:08:48;7.40;;;3.97;;
11588;SDS011;5850;51.360;12.362;2023-11-21T05:11:27;7.50;;;3.90;;
11588;SDS011;5850;51.360;12.362;2023-11-21T05:14:08;5.40;;;3.93;;
11588;SDS011;5850;51.360;12.362;2023-11-21T05:16:42;7.67;;;4.73;;
11588;SDS011;5850;51.360;12.362;2023-11-21T05:19:15;4.93;;;4.03;;
11588;SDS011;5850;51.360;12.362;2023-11-21T05:21:53;5.17;;;3.77;;
11588;SDS011;5850;51.360;12.362;2023-11-21T05:24:35;5.43;;;3.97;;
11588;SDS011;5850;51.360;12.362;2023-11-21T05:27:15;6.77;;;4.40;;
11588;SDS011;5850;51.360;12.362;2023-11-21T05:29:51;6.63;;;3.80;;
11588;SDS011;5850;51.360;12.362;2023-11-21T05:32:23;6.17;;;4.20;;
11588;SDS011;5850;51.360;12.362;2023-11-21T05:34:54;7.30;;;3.90;;
11588;SDS011;5850;51.360;12.362;2023-11-21T05:37:27;6.73;;;4.03;;
11588;SDS011;5850;51.360;12.362;2023-11-21T05:39:59;11.03;;;3.80;;
11588;SDS011;5850;51.360;12.362;2023-11-21T05:42:34;6.67;;;3.83;;
11588;SDS011;5850;51.360;12.362;2023-11-21T05:45:08;7.93;;;3.70;;
11588;SDS011;5850;51.360;12.362;2023-11-21T05:47:53;4.23;;;3.40;;
11588;SDS011;5850;51.360;12.362;2023-11-21T05:50:31;5.43;;;3.77;;
11588;SDS011;5850;51.360;12.362;2023-11-21T05:53:10;5.03;;;3.70;;
11588;SDS011;5850;51.360;12.362;2023-11-21T05:55:51;8.00;;;4.00;;
11588;SDS011;5850;51.360;12.362;2023-11-21T05:58:24;6.33;;;3.63;;
11588;SDS011;5850;51.360;12.362;2023-11-21T06:00:58;4.60;;;3.43;;
11588;SDS011;5850;51.360;12.362;2023-11-21T06:03:36;6.60;;;3.87;;
11588;SDS011;5850;51.360;12.362;2023-11-21T06:06:12;9.03;;;4.50;;
11588;SDS011;5850;51.360;12.362;2023-11-21T06:09:12;6.37;;;4.10;;
11588;SDS011;5850;51.360;12.362;2023-11-21T06:11:47;6.73;;;4.17;;
11588;SDS011;5850;51.360;12.362;2023-11-21T06:14:28;6.47;;;4.10;;
11588;SDS011;5850;51.360;12.362;2023-11-21T06:17:15;5.83;;;4.13;;
11588;SDS011;5850;51.360;12.362;2023-11-21T06:19:59;6.43;;;4.10;;
11588;SDS011;5850;51.360;12.362;2023-11-21T06:22:42;6.47;;;4.40;;
11588;SDS011;5850;51.360;12.362;2023-11-21T06:25:18;7.57;;;4.40;;
11588;SDS011;5850;51.360;12.362;2023-11-21T06:27:53;8.53;;;4.57;;
11588;SDS011;5850;51.360;12.362;2023-11-21T06:30:30;6.27;;;4.53;;
11588;SDS011;5850;51.360;12.362;2023-11-21T06:33:07;9.20;;;5.13;;
11588;SDS011;5850;51.360;12.362;2023-11-21T06:35:36;7.17;;;5.37;;
11588;SDS011;5850;51.360;12.362;2023-11-21T06:38:13;7.93;;;5.10;;
11588;SDS011;5850;51.360;12.362;2023-11-21T06:40:49;11.33;;;5.97;;
11588;SDS011;5850;51.360;12.362;2023-11-21T06:43:19;8.60;;;5.00;;
11588;SDS011;5850;51.360;12.362;2023-11-21T06:46:02;10.03;;;5.70;;
11588;SDS011;5850;51.360;12.362;2023-11-21T06:48:34;9.63;;;6.43;;
11588;SDS011;5850;51.360;12.362;2023-11-21T06:51:21;12.87;;;6.00;;
11588;SDS011;5850;51.360;12.362;2023-11-21T06:53:55;9.90;;;5.83;;
11588;SDS011;5850;51.360;12.362;2023-11-21T06:56:28;9.73;;;6.20;;
11588;SDS011;5850;51.360;12.362;2023-11-21T06:58:59;11.33;;;6.63;;
11588;SDS011;5850;51.360;12.362;2023-11-21T07:01:34;11.33;;;6.90;;
11588;SDS011;5850;51.360;12.362;2023-11-21T07:04:10;11.30;;;6.27;;
11588;SDS011;5850;51.360;12.362;2023-11-21T07:06:38;12.00;;;6.30;;
11588;SDS011;5850;51.360;12.362;2023-11-21T07:09:15;11.00;;;6.37;;
11588;SDS011;5850;51.360;12.362;2023-11-21T07:11:48;12.07;;;7.10;;
11588;SDS011;5850;51.360;12.362;2023-11-21T07:14:18;12.20;;;6.90;;
11588;SDS011;5850;51.360;12.362;2023-11-21T07:16:47;14.73;;;7.70;;
11588;SDS011;5850;51.360;12.362;2023-11-21T07:19:18;8.63;;;6.47;;
11588;SDS011;5850;51.360;12.362;2023-11-21T07:21:55;9.97;;;6.57;;
11588;SDS011;5850;51.360;12.362;2023-11-21T07:24:25;9.80;;;7.97;;
11588;SDS011;5850;51.360;12.362;2023-11-21T07:26:53;13.87;;;8.97;;
11588;SDS011;5850;51.360;12.362;2023-11-21T07:29:25;15.00;;;10.60;;
11588;SDS011;5850;51.360;12.362;2023-11-21T07:31:59;17.13;;;10.70;;
11588;SDS011;5850;51.360;12.362;2023-11-21T07:34:32;19.43;;;12.03;;
11588;SDS011;5850;51.360;12.362;2023-11-21T07:37:09;21.43;;;12.93;;
11588;SDS011;5850;51.360;12.362;2023-11-21T07:39:46;22.80;;;15.60;;
11588;SDS011;5850;51.360;12.362;2023-11-21T07:42:15;23.93;;;14.90;;
11588;SDS011;5850;51.360;12.362;2023-11-21T07:44:47;22.67;;;14.40;;
11588;SDS011;5850;51.360;12.362;2023-11-21T07:47:24;24.77;;;15.50;;
11588;SDS011;5850;51.360;12.362;2023-11-21T07:49:55;20.83;;;14.27;;
11588;SDS011;5850;51.360;12.362;2023-11-21T07:52:24;21.63;;;14.00;;
11588;SDS011;5850;51.360;12.362;2023-11-21T07:54:53;22.27;;;15.77;;
11588;SDS011;5850;51.360;12.362;2023-11-21T07:57:24;14.97;;;11.07;;
11588;SDS011;5850;51.360;12.362;2023-11-21T08:00:00;15.07;;;11.13;;
11588;SDS011;5850;51.360;12.362;2023-11-21T08:02:33;16.00;;;11.87;;
11588;SDS011;5850;51.360;12.362;2023-11-21T08:05:07;15.53;;;11.40;;
11588;SDS011;5850;51.360;12.362;2023-11-21T08:08:00;15.57;;;11.87;;
11588;SDS011;5850;51.360;12.362;2023-11-21T08:10:39;14.17;;;10.90;;
11588;SDS011;5850;51.360;12.362;2023-11-21T08:13:15;13.40;;;9.77;;
11588;SDS011;5850;51.360;12.362;2023-11-21T08:15:49;11.40;;;8.97;;
11588;SDS011;5850;51.360;12.362;2023-11-21T08:18:22;11.27;;;8.57;;
11588;SDS011;5850;51.360;12.362;2023-11-21T08:20:51;10.60;;;8.57;;
11588;SDS011;5850;51.360;12.362;2023-11-21T08:23:24;11.33;;;8.03;;
11588;SDS011;5850;51.360;12.362;2023-11-21T08:26:02;12.57;;;8.80;;
11588;SDS011;5850;51.360;12.362;2023-11-21T08:28:33;12.00;;;8.37;;
11588;SDS011;5850;51.360;12.362;2023-11-21T08:31:04;11.87;;;8.43;;
11588;SDS011;5850;51.360;12.362;2023-11-21T08:33:32;9.10;;;7.00;;
11588;SDS011;5850;51.360;12.362;2023-11-21T08:36:15;13.57;;;8.53;;
11588;SDS011;5850;51.360;12.362;2023-11-21T08:38:47;12.47;;;8.73;;
11588;SDS011;5850;51.360;12.362;2023-11-21T08:41:28;9.43;;;7.27;;
11588;SDS011;5850;51.360;12.362;2023-11-21T08:44:04;7.27;;;5.90;;
11588;SDS011;5850;51.360;12.362;2023-11-21T08:46:44;8.30;;;6.33;;
11588;SDS011;5850;51.360;12.362;2023-11-21T08:49:29;7.17;;;6.00;;
11588;SDS011;5850;51.360;12.362;2023-11-21T08:52:01;7.63;;;5.37;;
11588;SDS011;5850;51.360;12.362;2023-11-21T08:54:39;7.27;;;6.30;;
11588;SDS011;5850;51.360;12.362;2023-11-21T08:57:33;7.43;;;6.23;;
11588;SDS011;5850;51.360;12.362;2023-11-21T09:00:07;9.83;;;7.70;;
11588;SDS011;5850;51.360;12.362;2023-11-21T09:02:38;11.40;;;7.30;;
11588;SDS011;5850;51.360;12.362;2023-11-21T09:05:09;9.67;;;7.80;;
11588;SDS011;5850;51.360;12.362;2023-11-21T09:07:43;11.43;;;7.17;;
11588;SDS011;5850;51.360;12.362;2023-11-21T09:10:19;9.03;;;7.30;;
11588;SDS011;5850;51.360;12.362;2023-11-21T09:12:54;13.13;;;7.70;;
11588;SDS011;5850;51.360;12.362;2023-11-21T09:15:28;11.77;;;8.87;;
11588;SDS011;5850;51.360;12.362;2023-11-21T09:18:08;8.90;;;7.33;;
11588;SDS011;5850;51.360;12.362;2023-11-21T09:20:42;12.00;;;7.93;;
11588;SDS011;5850;51.360;12.362;2023-11-21T09:23:19;12.50;;;7.20;;
11588;SDS011;5850;51.360;12.362;2023-11-21T09:25:52;9.87;;;7.90;;
11588;SDS011;5850;51.360;12.362;2023-11-21T09:28:23;10.43;;;7.73;;
11588;SDS011;5850;51.360;12.362;2023-11-21T09:30:55;10.30;;;7.67;;
11588;SDS011;5850;51.360;12.362;2023-11-21T09:33:29;10.57;;;8.10;;
11588;SDS011;5850;51.360;12.362;2023-11-21T09:36:00;11.63;;;8.93;;
11588;SDS011;5850;51.360;12.362;2023-11-21T09:38:40;11.07;;;7.87;;
11588;SDS011;5850;51.360;12.362;2023-11-21T09:41:27;10.57;;;7.83;;
11588;SDS011;5850;51.360;12.362;2023-11-21T09:44:06;9.70;;;7.73;;
11588;SDS011;5850;51.360;12.362;2023-11-21T09:46:48;10.97;;;7.93;;
11588;SDS011;5850;51.360;12.362;2023-11-21T09:49:26;10.23;;;8.00;;
11588;SDS011;5850;51.360;12.362;2023-11-21T09:51:58;10.93;;;8.00;;
11588;SDS011;5850;51.360;12.362;2023-11-21T09:54:41;8.10;;;7.07;;
11588;SDS011;5850;51.360;12.362;2023-11-21T09:57:12;6.13;;;5.17;;
11588;SDS011;5850;51.360;12.362;2023-11-21T09:59:55;5.73;;;5.13;;
11588;SDS011;5850;51.360;12.362;2023-11-21T10:02:34;5.60;;;4.60;;
11588;SDS011;5850;51.360;12.362;2023-11-21T10:05:08;5.43;;;4.30;;
11588;SDS011;5850;51.360;12.362;2023-11-21T10:07:39;6.47;;;4.87;;
11588;SDS011;5850;51.360;12.362;2023-11-21T10:10:13;8.23;;;4.60;;
11588;SDS011;5850;51.360;12.362;2023-11-21T10:13:03;5.97;;;5.07;;
11588;SDS011;5850;51.360;12.362;2023-11-21T10:15:50;6.47;;;4.87;;
11588;SDS011;5850;51.360;12.362;2023-11-21T10:18:38;6.03;;;5.13;;
11588;SDS011;5850;51.360;12.362;2023-11-21T10:21:37;7.13;;;5.10;;
11588;SDS011;5850;51.360;12.362;2023-11-21T10:24:16;6.00;;;5.03;;
11588;SDS011;5850;51.360;12.362;2023-11-21T10:26:57;6.80;;;4.97;;
11588;SDS011;5850;51.360;12.362;2023-11-21T10:29:34;6.87;;;5.23;;
11588;SDS011;5850;51.360;12.362;2023-11-21T10:32:08;5.30;;;4.70;;
11588;SDS011;5850;51.360;12.362;2023-11-21T10:34:36;7.23;;;5.77;;
11588;SDS011;5850;51.360;12.362;2023-11-21T10:37:14;6.50;;;4.80;;
11588;SDS011;5850;51.360;12.362;2023-11-21T10:39:47;14.33;;;9.77;;
11588;SDS011;5850;51.360;12.362;2023-11-21T10:42:26;6.23;;;4.47;;
11588;SDS011;5850;51.360;12.362;2023-11-21T10:45:25;5.47;;;4.67;;
11588;SDS011;5850;51.360;12.362;2023-11-21T10:48:06;5.10;;;4.60;;
11588;SDS011;5850;51.360;12.362;2023-11-21T10:50:55;6.50;;;5.43;;
11588;SDS011;5850;51.360;12.362;2023-11-21T10:53:28;6.27;;;4.90;;
11588;SDS011;5850;51.360;12.362;2023-11-21T10:56:09;5.80;;;5.00;;
11588;SDS011;5850;51.360;12.362;2023-11-21T10:58:53;9.37;;;5.67;;
11588;SDS011;5850;51.360;12.362;2023-11-21T11:01:27;5.33;;;4.57;;
11588;SDS011;5850;51.360;12.362;2023-11-21T11:04:01;6.23;;;4.90;;
11588;SDS011;5850;51.360;12.362;2023-11-21T11:06:42;6.97;;;6.07;;
11588;SDS011;5850;51.360;12.362;2023-11-21T11:09:23;8.07;;;6.17;;
11588;SDS011;5850;51.360;12.362;2023-11-21T11:12:00;10.10;;;6.63;;
11588;SDS011;5850;51.360;12.362;2023-11-21T11:14:34;10.40;;;6.97;;
11588;SDS011;5850;51.360;12.362;2023-11-21T11:17:12;9.93;;;7.17;;
11588;SDS011;5850;51.360;12.362;2023-11-21T11:19:52;7.83;;;6.40;;
11588;SDS011;5850;51.360;12.362;2023-11-21T11:22:43;8.50;;;6.40;;
11588;SDS011;5850;51.360;12.362;2023-11-21T11:25:34;9.53;;;7.13;;
11588;SDS011;5850;51.360;12.362;2023-11-21T11:28:21;10.13;;;7.23;;
11588;SDS011;5850;51.360;12.362;2023-11-21T11:37:12;14.63;;;8.50;;
11588;SDS011;5850;51.360;12.362;2023-11-21T11:39:49;10.33;;;7.90;;
11588;SDS011;5850;51.360;12.362;2023-11-21T11:42:26;12.80;;;8.27;;
11588;SDS011;5850;51.360;12.362;2023-11-21T11:45:02;12.00;;;8.83;;
11588;SDS011;5850;51.360;12.362;2023-11-21T11:47:56;12.60;;;9.03;;
11588;SDS011;5850;51.360;12.362;2023-11-21T11:50:32;15.37;;;10.80;;
11588;SDS011;5850;51.360;12.362;2023-11-21T11:53:14;14.70;;;10.70;;
11588;SDS011;5850;51.360;12.362;2023-11-21T11:56:00;13.83;;;10.13;;
11588;SDS011;5850;51.360;12.362;2023-11-21T11:59:03;15.47;;;10.50;;
11588;SDS011;5850;51.360;12.362;2023-11-21T12:01:35;12.87;;;8.80;;
11588;SDS011;5850;51.360;12.362;2023-11-21T12:06:43;12.90;;;8.87;;
11588;SDS011;5850;51.360;12.362;2023-11-21T12:09:18;12.03;;;8.13;;
11588;SDS011;5850;51.360;12.362;2023-11-21T12:11:50;11.80;;;7.63;;
11588;SDS011;5850;51.360;12.362;2023-11-21T12:14:17;10.53;;;7.70;;
11588;SDS011;5850;51.360;12.362;2023-11-21T12:16:46;12.37;;;7.07;;
11588;SDS011;5850;51.360;12.362;2023-11-21T12:19:14;9.90;;;7.03;;
11588;SDS011;5850;51.360;12.362;2023-11-21T12:21:42;8.60;;;6.10;;
11588;SDS011;5850;51.360;12.362;2023-11-21T12:24:11;9.60;;;6.47;;
11588;SDS011;5850;51.360;12.362;2023-11-21T12:26:41;9.50;;;6.80;;
11588;SDS011;5850;51.360;12.362;2023-11-21T12:29:09;10.47;;;6.87;;
11588;SDS011;5850;51.360;12.362;2023-11-21T12:31:37;9.43;;;6.90;;
11588;SDS011;5850;51.360;12.362;2023-11-21T12:34:05;17.43;;;9.57;;
11588;SDS011;5850;51.360;12.362;2023-11-21T12:36:35;10.47;;;7.10;;
11588;SDS011;5850;51.360;12.362;2023-11-21T12:39:03;7.97;;;6.63;;
11588;SDS011;5850;51.360;12.362;2023-11-21T12:41:31;8.20;;;6.33;;
11588;SDS011;5850;51.360;12.362;2023-11-21T12:43:58;9.83;;;7.83;;
11588;SDS011;5850;51.360;12.362;2023-11-21T12:46:27;10.47;;;8.17;;
11588;SDS011;5850;51.360;12.362;2023-11-21T12:48:56;12.57;;;9.60;;
11588;SDS011;5850;51.360;12.362;2023-11-21T12:51:24;14.90;;;10.17;;
11588;SDS011;5850;51.360;12.362;2023-11-21T12:53:53;15.13;;;10.23;;
11588;SDS011;5850;51.360;12.362;2023-11-21T12:56:21;14.33;;;10.07;;
11588;SDS011;5850;51.360;12.362;2023-11-21T12:58:50;15.77;;;10.27;;
11588;SDS011;5850;51.360;12.362;2023-11-21T13:01:24;15.63;;;10.53;;
11588;SDS011;5850;51.360;12.362;2023-11-21T13:03:56;19.63;;;11.53;;
11588;SDS011;5850;51.360;12.362;2023-11-21T13:06:25;16.13;;;10.13;;
11588;SDS011;5850;51.360;12.362;2023-11-21T13:08:54;13.90;;;10.67;;
11588;SDS011;5850;51.360;12.362;2023-11-21T13:11:23;17.17;;;10.07;;
11588;SDS011;5850;51.360;12.362;2023-11-21T13:13:52;15.63;;;10.47;;
11588;SDS011;5850;51.360;12.362;2023-11-21T13:16:22;15.90;;;10.07;;
11588;SDS011;5850;51.360;12.362;2023-11-21T13:18:50;13.00;;;9.20;;
11588;SDS011;5850;51.360;12.362;2023-11-21T13:21:18;13.43;;;9.40;;
11588;SDS011;5850;51.360;12.362;2023-11-21T13:23:48;15.70;;;10.17;;
11588;SDS011;5850;51.360;12.362;2023-11-21T13:26:19;15.03;;;9.53;;
11588;SDS011;5850;51.360;12.362;2023-11-21T13:28:49;12.93;;;8.70;;
11588;SDS011;5850;51.360;12.362;2023-11-21T13:31:17;12.97;;;9.07;;
11588;SDS011;5850;51.360;12.362;2023-11-21T13:33:52;10.43;;;9.10;;
11588;SDS011;5850;51.360;12.362;2023-11-21T13:36:25;11.73;;;8.90;;
11588;SDS011;5850;51.360;12.362;2023-11-21T13:38:56;10.47;;;8.33;;
11588;SDS011;5850;51.360;12.362;2023-11-21T13:41:25;12.40;;;8.90;;
11588;SDS011;5850;51.360;12.362;2023-11-21T13:43:57;13.70;;;8.07;;
11588;SDS011;5850;51.360;12.362;2023-11-21T13:46:35;9.90;;;7.20;;
11588;SDS011;5850;51.360;12.362;2023-11-21T13:49:04;10.10;;;8.40;;
11588;SDS011;5850;51.360;12.362;2023-11-21T13:51:36;11.23;;;7.17;;
11588;SDS011;5850;51.360;12.362;2023-11-21T13:54:09;8.23;;;7.13;;
11588;SDS011;5850;51.360;12.362;2023-11-21T13:56:37;9.80;;;7.30;;
11588;SDS011;5850;51.360;12.362;2023-11-21T13:59:07;8.93;;;7.17;;
11588;SDS011;5850;51.360;12.362;2023-11-21T14:01:44;10.43;;;7.50;;
11588;SDS011;5850;51.360;12.362;2023-11-21T14:04:22;7.87;;;6.20;;
11588;SDS011;5850;51.360;12.362;2023-11-21T14:07:13;8.70;;;6.10;;
11588;SDS011;5850;51.360;12.362;2023-11-21T14:09:52;7.53;;;5.33;;
11588;SDS011;5850;51.360;12.362;2023-11-21T14:12:21;7.30;;;5.43;;
11588;SDS011;5850;51.360;12.362;2023-11-21T14:14:49;5.63;;;4.87;;
11588;SDS011;5850;51.360;12.362;2023-11-21T14:17:17;5.70;;;4.23;;
11588;SDS011;5850;51.360;12.362;2023-11-21T14:19:51;4.67;;;4.17;;
11588;SDS011;5850;51.360;12.362;2023-11-21T14:22:21;4.73;;;3.73;;
11588;SDS011;5850;51.360;12.362;2023-11-21T14:24:52;6.07;;;4.50;;
11588;SDS011;5850;51.360;12.362;2023-11-21T14:27:22;5.40;;;4.23;;
11588;SDS011;5850;51.360;12.362;2023-11-21T14:29:50;9.13;;;4.63;;
11588;SDS011;5850;51.360;12.362;2023-11-21T14:32:19;6.97;;;4.60;;
11588;SDS011;5850;51.360;12.362;2023-11-21T14:34:47;6.47;;;4.87;;
11588;SDS011;5850;51.360;12.362;2023-11-21T14:37:16;6.07;;;4.50;;
11588;SDS011;5850;51.360;12.362;2023-11-21T14:39:46;4.57;;;4.03;;
11588;SDS011;5850;51.360;12.362;2023-11-21T14:42:16;6.07;;;4.40;;
11588;SDS011;5850;51.360;12.362;2023-11-21T14:44:50;4.30;;;3.80;;
11588;SDS011;5850;51.360;12.362;2023-11-21T14:47:18;4.70;;;4.20;;
11588;SDS011;5850;51.360;12.362;2023-11-21T14:49:51;5.00;;;4.30;;
11588;SDS011;5850;51.360;12.362;2023-11-21T14:52:20;5.30;;;4.57;;
11588;SDS011;5850;51.360;12.362;2023-11-21T14:55:01;5.67;;;4.80;;
11588;SDS011;5850;51.360;12.362;2023-11-21T14:57:53;6.57;;;4.17;;
11588;SDS011;5850;51.360;12.362;2023-11-21T15:00:20;5.27;;;4.77;;
11588;SDS011;5850;51.360;12.362;2023-11-21T15:03:06;4.27;;;3.87;;
11588;SDS011;5850;51.360;12.362;2023-11-21T15:05:36;5.10;;;4.13;;
11588;SDS011;5850;51.360;12.362;2023-11-21T15:08:05;5.43;;;3.93;;
11588;SDS011;5850;51.360;12.362;2023-11-21T15:10:46;4.97;;;3.93;;
11588;SDS011;5850;51.360;12.362;2023-11-21T15:13:15;6.00;;;4.63;;
11588;SDS011;5850;51.360;12.362;2023-11-21T15:15:44;5.33;;;4.53;;
11588;SDS011;5850;51.360;12.362;2023-11-21T15:18:11;8.90;;;6.77;;
11588;SDS011;5850;51.360;12.362;2023-11-21T15:20:39;7.30;;;5.50;;
11588;SDS011;5850;51.360;12.362;2023-11-21T15:23:08;5.73;;;4.50;;
11588;SDS011;5850;51.360;12.362;2023-11-21T15:25:38;5.57;;;4.50;;
11588;SDS011;5850;51.360;12.362;2023-11-21T15:28:07;4.57;;;3.90;;
11588;SDS011;5850;51.360;12.362;2023-11-21T15:30:35;5.77;;;4.47;;